Time;durP1;ratioP1;P1;durP2;ratioP2;P2;SDS_P1;SDS_P2;PMS_P1;PMS_P2;Temp;Humidity;BMP_temperature;BMP_pressure;BME280_temperature;BME280_humidity;BME280_pressure;Samples;Min_cycle;Max_cycle;Signal;HPM_P1;HPM_P2
2023/09/29 00:00:20;;;;;;;20.73;19.00;;;14.40;95.30;;;;;;4848034;29;20437;-42
2023/09/29 00:02:47;;;;;;;21.20;19.50;;;14.40;97.90;;;;;;4849069;29;20443;-42
2023/09/29 00:05:17;;;;;;;22.17;20.27;;;14.40;93.20;;;;;;4848901;29;20429;-42
2023/09/29 00:07:42;;;;;;;21.37;19.60;;;14.30;97.00;;;;;;4849356;29;21018;-41
2023/09/29 00:10:09;;;;;;;25.20;21.00;;;14.30;97.10;;;;;;4849457;29;21381;-40
2023/09/29 00:12:37;;;;;;;22.00;20.10;;;14.30;99.90;;;;;;4849104;29;20185;-40
2023/09/29 00:15:06;;;;;;;23.17;21.10;;;14.30;99.90;;;;;;4849520;29;21039;-40
2023/09/29 00:17:32;;;;;;;21.63;19.90;;;14.30;99.90;;;;;;4849037;29;20924;-40
2023/09/29 00:20:10;;;;;;;22.10;20.10;;;14.30;99.90;;;;;;4848979;29;20421;-40
2023/09/29 00:22:37;;;;;;;22.03;20.03;;;14.20;98.60;;;;;;4848940;29;20180;-40
2023/09/29 00:25:05;;;;;;;22.17;20.27;;;14.20;99.90;;;;;;4848916;29;20417;-45
2023/09/29 00:27:30;;;;;;;21.90;19.90;;;14.20;99.90;;;;;;4848824;29;20473;-41
2023/09/29 00:29:56;;;;;;;22.73;20.80;;;14.10;99.90;;;;;;4848990;29;20437;-41
2023/09/29 00:32:21;;;;;;;22.57;20.60;;;14.10;99.90;;;;;;4848905;29;20188;-41
2023/09/29 00:34:47;;;;;;;22.67;20.67;;;14.10;99.90;;;;;;4848707;29;20196;-41
2023/09/29 00:37:12;;;;;;;22.17;20.40;;;14.10;99.90;;;;;;4848872;29;20199;-40
2023/09/29 00:39:38;;;;;;;23.60;21.23;;;14.10;99.90;;;;;;4848542;29;20227;-47
2023/09/29 00:42:06;;;;;;;22.43;20.53;;;14.00;99.90;;;;;;4848725;29;20249;-40
2023/09/29 00:44:34;;;;;;;22.27;20.43;;;14.00;99.90;;;;;;4846960;29;20220;-42
2023/09/29 00:47:02;;;;;;;22.27;20.27;;;14.00;99.90;;;;;;4848438;29;20444;-40
2023/09/29 00:49:29;;;;;;;23.60;21.50;;;13.90;99.90;;;;;;4848681;29;20440;-40
2023/09/29 00:51:59;;;;;;;23.00;20.90;;;14.00;99.90;;;;;;4848369;29;20559;-41
2023/09/29 00:54:28;;;;;;;22.13;20.33;;;13.90;99.90;;;;;;4848485;29;20432;-40
2023/09/29 00:56:55;;;;;;;22.57;20.57;;;13.90;99.90;;;;;;4848780;29;20921;-50
2023/09/29 00:59:24;;;;;;;22.30;20.40;;;13.90;99.90;;;;;;4848541;29;20793;-40
2023/09/29 01:01:50;;;;;;;20.93;19.13;;;13.80;99.90;;;;;;4848356;29;20481;-41
2023/09/29 01:04:16;;;;;;;23.23;21.23;;;13.80;99.90;;;;;;4847992;29;20540;-41
2023/09/29 01:06:41;;;;;;;22.10;20.17;;;13.80;99.90;;;;;;4848288;29;20433;-44
2023/09/29 01:09:09;;;;;;;21.60;19.70;;;13.80;99.90;;;;;;4847897;29;20703;-41
2023/09/29 01:11:44;;;;;;;21.87;19.87;;;13.80;99.90;;;;;;4848247;29;20195;-40
2023/09/29 01:14:13;;;;;;;21.80;19.80;;;13.80;99.90;;;;;;4848064;29;20468;-48
2023/09/29 01:16:40;;;;;;;21.73;19.90;;;13.80;99.90;;;;;;4847713;29;20835;-40
2023/09/29 01:19:12;;;;;;;21.77;20.03;;;13.80;99.90;;;;;;4848115;29;20437;-40
2023/09/29 01:21:39;;;;;;;22.83;20.57;;;13.80;99.90;;;;;;4847929;29;20445;-41
2023/09/29 01:24:07;;;;;;;23.27;21.23;;;13.70;99.90;;;;;;4847708;29;20525;-41
2023/09/29 01:26:33;;;;;;;21.37;19.50;;;13.70;99.90;;;;;;4847809;29;20512;-43
2023/09/29 01:28:58;;;;;;;21.27;19.47;;;13.70;99.90;;;;;;4848074;29;20497;-40
2023/09/29 01:31:24;;;;;;;21.53;19.53;;;13.70;99.90;;;;;;4847796;29;20211;-47
2023/09/29 01:33:50;;;;;;;22.47;20.40;;;13.70;99.90;;;;;;4847933;29;20196;-42
2023/09/29 01:36:16;;;;;;;22.43;20.50;;;13.70;99.90;;;;;;4848027;29;20211;-41
2023/09/29 01:38:42;;;;;;;22.37;20.37;;;13.70;99.90;;;;;;4848234;29;20970;-44
2023/09/29 01:41:09;;;;;;;22.47;20.50;;;13.70;99.90;;;;;;4848305;29;20425;-41
2023/09/29 01:43:34;;;;;;;22.10;19.93;;;13.70;99.90;;;;;;4847656;29;20476;-44
2023/09/29 01:46:01;;;;;;;22.53;20.43;;;13.70;99.90;;;;;;4847679;29;20966;-43
2023/09/29 01:48:26;;;;;;;22.70;20.50;;;13.80;99.90;;;;;;4848133;29;20277;-40
2023/09/29 01:50:52;;;;;;;20.63;18.83;;;13.80;99.90;;;;;;4847364;29;20524;-44
2023/09/29 01:53:17;;;;;;;21.93;20.10;;;13.70;99.90;;;;;;4847508;29;20196;-40
2023/09/29 01:55:43;;;;;;;23.10;20.93;;;13.70;99.90;;;;;;4847809;29;20188;-40
2023/09/29 01:58:09;;;;;;;22.60;20.50;;;13.70;99.90;;;;;;4848019;29;20207;-41
2023/09/29 02:00:35;;;;;;;22.57;20.60;;;13.70;99.90;;;;;;4847574;29;20546;-43
2023/09/29 02:03:01;;;;;;;21.70;19.73;;;13.70;99.90;;;;;;4847586;29;20838;-42
2023/09/29 02:05:26;;;;;;;22.37;20.40;;;13.70;99.90;;;;;;4847409;29;20894;-40
2023/09/29 02:07:52;;;;;;;22.00;20.00;;;13.80;99.90;;;;;;4847606;29;20448;-40
2023/09/29 02:10:20;;;;;;;20.93;19.13;;;13.80;99.90;;;;;;4847392;29;20189;-40
2023/09/29 02:12:49;;;;;;;23.80;21.70;;;13.70;99.90;;;;;;4847537;29;20429;-41
2023/09/29 02:15:16;;;;;;;21.40;19.60;;;13.70;99.90;;;;;;4847615;29;20436;-40
2023/09/29 02:17:42;;;;;;;21.57;19.67;;;13.70;99.90;;;;;;4847502;29;20417;-44
2023/09/29 02:20:17;;;;;;;21.77;19.87;;;13.70;99.90;;;;;;4847536;29;20898;-40
2023/09/29 02:22:42;;;;;;;22.93;20.83;;;13.70;99.90;;;;;;4847286;29;20903;-40
2023/09/29 02:25:17;;;;;;;21.37;19.63;;;13.70;99.90;;;;;;4847077;29;20428;-45
2023/09/29 02:27:43;;;;;;;22.17;20.00;;;13.60;99.90;;;;;;4848247;29;20179;-40
2023/09/29 02:30:11;;;;;;;21.63;19.87;;;13.60;99.90;;;;;;4850910;29;20433;-40
2023/09/29 02:32:41;;;;;;;22.07;20.00;;;13.60;99.90;;;;;;4851005;29;21247;-39
2023/09/29 02:35:08;;;;;;;21.20;19.33;;;13.60;99.90;;;;;;4850584;29;20800;-44
2023/09/29 02:37:34;;;;;;;22.77;20.77;;;13.50;99.90;;;;;;4850902;29;20467;-42
2023/09/29 02:39:59;;;;;;;22.10;20.20;;;13.50;99.90;;;;;;4850653;29;20520;-44
2023/09/29 02:42:25;;;;;;;22.17;20.27;;;13.60;99.90;;;;;;4849453;29;20200;-40
2023/09/29 02:44:51;;;;;;;22.37;20.43;;;13.60;99.90;;;;;;4850824;29;20757;-39
2023/09/29 02:47:17;;;;;;;21.87;19.97;;;13.60;99.90;;;;;;4851021;29;20434;-41
2023/09/29 02:49:42;;;;;;;22.43;20.27;;;13.60;99.90;;;;;;4850643;29;20613;-40
2023/09/29 02:52:08;;;;;;;21.93;19.93;;;13.60;99.90;;;;;;4850544;29;20192;-40
2023/09/29 02:54:33;;;;;;;20.80;19.00;;;13.60;99.90;;;;;;4850213;29;20204;-40
2023/09/29 02:56:59;;;;;;;20.50;18.70;;;13.60;99.90;;;;;;4850970;29;20248;-39
2023/09/29 02:59:25;;;;;;;21.40;19.40;;;13.60;99.90;;;;;;4850143;29;20207;-40
2023/09/29 03:01:51;;;;;;;21.83;19.83;;;13.60;99.90;;;;;;4850502;29;20800;-40
2023/09/29 03:04:17;;;;;;;21.20;19.47;;;13.50;99.90;;;;;;4849939;29;20224;-43
2023/09/29 03:06:42;;;;;;;22.80;20.70;;;13.50;99.90;;;;;;4850487;29;20472;-45
2023/09/29 03:09:13;;;;;;;22.23;20.07;;;13.50;99.90;;;;;;4849906;29;20251;-45
2023/09/29 03:11:42;;;;;;;20.03;18.33;;;13.50;99.90;;;;;;4850043;29;20636;-42
2023/09/29 03:14:09;;;;;;;20.60;18.90;;;13.50;99.90;;;;;;4850184;29;20433;-40
2023/09/29 03:16:35;;;;;;;22.07;19.97;;;13.50;99.90;;;;;;4850086;29;20916;-40
2023/09/29 03:19:02;;;;;;;21.60;19.70;;;13.50;99.90;;;;;;4850079;29;20444;-40
2023/09/29 03:21:28;;;;;;;21.97;20.07;;;13.50;99.90;;;;;;4850413;29;20244;-40
2023/09/29 03:23:54;;;;;;;21.67;19.77;;;13.50;99.90;;;;;;4848159;29;21193;-40
2023/09/29 03:26:22;;;;;;;21.40;19.10;;;13.50;99.90;;;;;;4850339;29;20248;-41
2023/09/29 03:28:53;;;;;;;20.93;19.13;;;13.50;99.90;;;;;;4850024;29;20193;-39
2023/09/29 03:31:19;;;;;;;20.87;19.00;;;13.50;99.90;;;;;;4849979;29;20889;-41
2023/09/29 03:33:44;;;;;;;20.97;18.90;;;13.50;99.90;;;;;;4849800;29;20593;-40
2023/09/29 03:36:10;;;;;;;21.97;20.00;;;13.50;99.90;;;;;;4848762;29;20314;-40
2023/09/29 03:38:37;;;;;;;21.80;19.80;;;13.50;99.90;;;;;;4849979;29;20200;-40
2023/09/29 03:41:06;;;;;;;21.07;18.97;;;13.50;99.90;;;;;;4848892;29;20185;-40
2023/09/29 03:43:31;;;;;;;21.17;19.07;;;13.50;99.90;;;;;;4849433;29;20480;-44
2023/09/29 03:45:57;;;;;;;21.10;19.27;;;13.50;99.90;;;;;;4849581;29;20433;-41
2023/09/29 03:48:24;;;;;;;21.40;19.40;;;13.50;99.90;;;;;;4849596;29;20643;-42
2023/09/29 03:50:50;;;;;;;20.30;18.20;;;13.50;99.90;;;;;;4849503;29;20240;-45
2023/09/29 03:53:16;;;;;;;21.50;19.60;;;13.50;99.90;;;;;;4849976;29;20861;-41
2023/09/29 03:55:43;;;;;;;20.10;18.33;;;13.50;99.90;;;;;;4849521;29;20223;-42
2023/09/29 03:58:09;;;;;;;22.23;19.93;;;13.50;99.90;;;;;;4849427;29;20934;-43
2023/09/29 04:00:35;;;;;;;22.83;20.57;;;13.60;99.90;;;;;;4849502;29;20440;-40
2023/09/29 04:03:01;;;;;;;20.60;18.80;;;13.60;99.90;;;;;;4849257;29;20224;-41
2023/09/29 04:05:27;;;;;;;20.00;18.23;;;13.70;99.90;;;;;;4849388;29;20437;-43
2023/09/29 04:07:53;;;;;;;20.47;18.37;;;13.70;99.90;;;;;;4849723;29;20727;-40
2023/09/29 04:10:20;;;;;;;21.43;19.40;;;13.70;99.90;;;;;;4849101;29;20489;-44
2023/09/29 04:12:47;;;;;;;20.23;18.53;;;13.80;99.90;;;;;;4848362;29;20429;-40
2023/09/29 04:15:13;;;;;;;20.50;18.77;;;13.80;99.90;;;;;;4849073;29;20425;-42
2023/09/29 04:17:39;;;;;;;20.13;18.13;;;13.80;99.90;;;;;;4849238;29;20429;-40
2023/09/29 04:20:05;;;;;;;19.97;18.33;;;13.80;99.90;;;;;;4849120;29;20785;-41
2023/09/29 04:22:32;;;;;;;20.77;19.00;;;13.80;99.90;;;;;;4849203;29;20508;-40
2023/09/29 04:24:57;;;;;;;19.33;17.77;;;13.80;99.90;;;;;;4849230;29;20647;-43
2023/09/29 04:27:23;;;;;;;19.60;17.57;;;13.80;99.90;;;;;;4849204;29;20447;-41
2023/09/29 04:29:50;;;;;;;20.83;19.03;;;13.80;99.90;;;;;;4848802;29;20769;-45
2023/09/29 04:32:16;;;;;;;20.20;18.47;;;13.80;99.90;;;;;;4848931;29;20433;-43
2023/09/29 04:34:41;;;;;;;22.27;20.23;;;13.80;99.90;;;;;;4848940;29;20833;-42
2023/09/29 04:37:07;;;;;;;20.47;18.77;;;13.80;99.90;;;;;;4848894;29;20437;-42
2023/09/29 04:39:32;;;;;;;19.40;17.70;;;13.80;99.90;;;;;;4849190;29;20611;-41
2023/09/29 04:41:58;;;;;;;30.53;23.20;;;13.80;99.90;;;;;;4848519;29;20465;-40
2023/09/29 04:44:23;;;;;;;22.57;19.90;;;13.80;99.90;;;;;;4848796;29;20220;-44
2023/09/29 04:46:50;;;;;;;21.00;19.10;;;13.80;99.90;;;;;;4848983;29;20279;-41
2023/09/29 04:49:16;;;;;;;21.23;19.43;;;13.70;99.90;;;;;;4848656;29;20271;-41
2023/09/29 04:51:43;;;;;;;21.50;19.40;;;13.70;99.90;;;;;;4847861;29;20425;-41
2023/09/29 04:54:10;;;;;;;22.33;20.00;;;13.70;99.90;;;;;;4847277;29;20205;-40
2023/09/29 04:56:36;;;;;;;22.00;19.80;;;13.60;99.90;;;;;;4847469;29;20429;-41
2023/09/29 04:59:01;;;;;;;20.20;18.50;;;13.60;99.90;;;;;;4848637;29;20524;-41
2023/09/29 05:01:27;;;;;;;20.50;18.70;;;13.60;99.90;;;;;;4848102;29;20434;-41
2023/09/29 05:03:53;;;;;;;21.70;19.53;;;13.60;99.90;;;;;;4848494;29;20563;-40
2023/09/29 05:06:19;;;;;;;27.50;20.20;;;13.60;99.90;;;;;;4848248;29;20196;-40
2023/09/29 05:08:45;;;;;;;21.80;19.80;;;13.60;99.90;;;;;;4848230;29;20707;-42
2023/09/29 05:11:24;;;;;;;23.13;20.67;;;13.60;99.90;;;;;;4848686;29;20442;-39
2023/09/29 05:13:51;;;;;;;21.80;19.70;;;13.50;99.90;;;;;;4848482;29;20426;-45
2023/09/29 05:16:16;;;;;;;22.30;20.30;;;13.50;99.90;;;;;;4848055;29;20433;-40
2023/09/29 05:18:43;;;;;;;22.30;20.20;;;13.50;99.90;;;;;;4848234;29;20432;-47
2023/09/29 05:21:10;;;;;;;21.63;19.60;;;13.50;99.90;;;;;;4848383;29;20716;-43
2023/09/29 05:23:37;;;;;;;22.53;20.13;;;13.50;99.90;;;;;;4847756;29;20560;-40
2023/09/29 05:26:05;;;;;;;23.60;21.20;;;13.50;99.90;;;;;;4847932;29;20429;-40
2023/09/29 05:28:31;;;;;;;22.07;20.17;;;13.50;99.90;;;;;;4848058;29;20916;-43
2023/09/29 05:30:57;;;;;;;21.60;19.70;;;13.50;99.90;;;;;;4848002;29;20850;-41
2023/09/29 05:33:23;;;;;;;21.90;19.90;;;13.50;99.90;;;;;;4847877;29;20801;-40
2023/09/29 05:35:49;;;;;;;21.73;19.73;;;13.50;99.90;;;;;;4848107;29;20591;-43
2023/09/29 05:38:15;;;;;;;21.60;19.70;;;13.50;99.90;;;;;;4848024;29;20425;-39
2023/09/29 05:40:41;;;;;;;21.33;19.00;;;13.50;99.90;;;;;;4847968;29;20789;-40
2023/09/29 05:43:10;;;;;;;21.50;19.67;;;13.50;99.90;;;;;;4847772;29;20216;-40
2023/09/29 05:45:37;;;;;;;22.83;20.70;;;13.60;99.90;;;;;;4847837;29;20184;-40
2023/09/29 05:48:03;;;;;;;21.97;19.80;;;13.60;99.90;;;;;;4847681;29;20471;-39
2023/09/29 05:50:29;;;;;;;22.10;20.00;;;13.70;99.90;;;;;;4847888;29;20880;-43
2023/09/29 05:52:56;;;;;;;22.53;20.47;;;13.80;99.90;;;;;;4847484;29;20429;-40
2023/09/29 05:55:22;;;;;;;23.17;20.80;;;13.80;99.90;;;;;;4847796;29;20191;-44
2023/09/29 05:57:49;;;;;;;21.67;19.70;;;13.90;99.90;;;;;;4848065;29;20431;-45
2023/09/29 06:00:15;;;;;;;22.97;20.67;;;13.90;99.90;;;;;;4847686;29;20422;-40
2023/09/29 06:02:41;;;;;;;22.43;20.40;;;14.00;99.90;;;;;;4848179;29;20569;-40
2023/09/29 06:05:07;;;;;;;22.40;20.30;;;14.10;99.90;;;;;;4851454;29;21282;-41
2023/09/29 06:07:33;;;;;;;21.73;19.80;;;14.20;99.90;;;;;;4851315;29;20192;-42
2023/09/29 06:09:59;;;;;;;20.83;19.03;;;14.30;99.90;;;;;;4851267;29;20723;-42
2023/09/29 06:12:25;;;;;;;21.83;19.80;;;14.40;99.90;;;;;;4851343;29;20524;-41
2023/09/29 06:14:50;;;;;;;20.73;18.93;;;14.40;99.90;;;;;;4851455;29;20636;-41
2023/09/29 06:17:16;;;;;;;21.40;19.60;;;14.50;99.90;;;;;;4851502;29;20440;-40
2023/09/29 06:19:41;;;;;;;21.00;19.23;;;14.60;99.90;;;;;;4851077;29;20193;-43
2023/09/29 06:22:07;;;;;;;21.43;19.60;;;14.70;99.90;;;;;;4851287;29;20192;-42
2023/09/29 06:24:33;;;;;;;21.87;19.57;;;14.80;99.90;;;;;;4851183;29;20660;-40
2023/09/29 06:26:59;;;;;;;21.73;19.90;;;14.80;99.90;;;;;;4849528;29;20218;-39
2023/09/29 06:29:24;;;;;;;21.50;19.70;;;14.90;99.90;;;;;;4851414;29;20919;-40
2023/09/29 06:31:50;;;;;;;21.77;19.90;;;15.00;97.10;;;;;;4850750;29;20750;-42
2023/09/29 06:34:16;;;;;;;21.33;19.10;;;15.10;92.70;;;;;;4851084;29;20298;-39
2023/09/29 06:36:42;;;;;;;19.83;18.17;;;15.20;89.10;;;;;;4850736;29;20619;-41
2023/09/29 06:39:08;;;;;;;21.00;19.20;;;15.30;79.30;;;;;;4851305;29;20506;-42
2023/09/29 06:41:34;;;;;;;20.80;19.10;;;15.40;69.80;;;;;;4851082;29;20868;-42
2023/09/29 06:44:00;;;;;;;20.33;18.63;;;15.50;66.60;;;;;;4850472;29;20575;-40
2023/09/29 06:46:25;;;;;;;20.60;18.90;;;15.50;58.50;;;;;;4850874;29;20189;-39
2023/09/29 06:48:52;;;;;;;20.50;18.77;;;15.60;54.60;;;;;;4850627;29;20477;-40
2023/09/29 06:51:18;;;;;;;21.53;19.60;;;15.70;42.20;;;;;;4850647;29;20231;-43
2023/09/29 06:53:44;;;;;;;20.73;18.93;;;15.80;38.90;;;;;;4850963;29;20995;-41
2023/09/29 06:56:10;;;;;;;20.00;18.43;;;16.00;37.30;;;;;;4850662;29;20196;-40
2023/09/29 06:58:36;;;;;;;20.33;18.73;;;16.10;27.60;;;;;;4851136;29;20276;-42
2023/09/29 07:01:02;;;;;;;21.67;19.67;;;16.20;3.10;;;;;;4850431;29;20792;-46
2023/09/29 07:03:30;;;;;;;21.13;19.13;;;16.30;1.00;;;;;;4849965;29;21370;-40
2023/09/29 07:05:57;;;;;;;22.13;20.17;;;16.50;1.00;;;;;;4850797;29;20551;-41
2023/09/29 07:08:23;;;;;;;20.80;18.90;;;16.60;1.00;;;;;;4850906;29;20519;-43
2023/09/29 07:10:49;;;;;;;21.30;19.50;;;16.70;1.00;;;;;;4850197;29;20413;-41
2023/09/29 07:13:15;;;;;;;20.53;18.83;;;16.90;1.00;;;;;;4850392;29;20204;-40
2023/09/29 07:15:41;;;;;;;21.10;19.40;;;17.00;1.00;;;;;;4849400;29;20212;-40
2023/09/29 07:18:10;;;;;;;20.60;18.90;;;17.10;1.00;;;;;;4849927;29;20711;-46
2023/09/29 07:20:37;;;;;;;21.10;19.23;;;17.20;1.00;;;;;;4850124;29;20245;-46
2023/09/29 07:23:03;;;;;;;19.17;17.87;;;17.30;1.00;;;;;;4850168;29;20547;-43
2023/09/29 07:25:29;;;;;;;21.90;20.00;;;17.50;1.00;;;;;;4850078;29;20429;-42
2023/09/29 07:27:55;;;;;;;19.53;18.03;;;17.60;1.00;;;;;;4850340;29;20425;-40
2023/09/29 07:30:21;;;;;;;20.43;18.67;;;17.70;1.00;;;;;;4850035;29;20188;-46
2023/09/29 07:32:46;;;;;;;22.37;20.43;;;17.90;1.00;;;;;;4849661;29;20593;-42
2023/09/29 07:35:12;;;;;;;20.93;19.20;;;18.10;1.00;;;;;;4850054;29;20224;-40
2023/09/29 07:37:38;;;;;;;21.40;19.67;;;18.30;1.00;;;;;;4849932;29;20766;-41
2023/09/29 07:40:07;;;;;;;19.47;18.07;;;18.40;99.90;;;;;;4849696;29;20444;-50
2023/09/29 07:42:32;;;;;;;18.87;17.27;;;18.60;99.90;;;;;;4849797;29;20829;-39
2023/09/29 07:44:58;;;;;;;20.00;18.30;;;18.70;99.90;;;;;;4849741;29;20480;-43
2023/09/29 07:47:23;;;;;;;20.70;19.00;;;18.90;99.90;;;;;;4849941;29;20372;-42
2023/09/29 07:49:49;;;;;;;20.70;19.00;;;19.10;4.20;;;;;;4850020;29;20193;-40
2023/09/29 07:52:15;;;;;;;19.23;17.73;;;19.30;1.00;;;;;;4849529;29;20184;-41
2023/09/29 07:54:40;;;;;;;20.60;19.00;;;19.40;1.00;;;;;;4849643;29;20597;-44
2023/09/29 07:57:07;;;;;;;21.10;19.50;;;19.70;16.20;;;;;;4849550;29;20189;-41
2023/09/29 07:59:32;;;;;;;19.60;18.10;;;19.90;94.30;;;;;;4849456;29;20177;-43
2023/09/29 08:01:59;;;;;;;19.83;18.10;;;20.10;99.90;;;;;;4849838;29;20459;-42
2023/09/29 08:04:25;;;;;;;20.20;18.60;;;20.30;79.90;;;;;;4849520;29;20212;-41
2023/09/29 08:06:51;;;;;;;19.63;18.23;;;20.50;1.00;;;;;;4849772;29;20511;-46
2023/09/29 08:09:17;;;;;;;19.13;17.83;;;20.70;1.00;;;;;;4849525;29;20505;-45
2023/09/29 08:11:43;;;;;;;20.03;18.37;;;21.00;99.90;;;;;;4849512;29;20436;-42
2023/09/29 08:14:09;;;;;;;19.37;17.97;;;21.20;1.00;;;;;;4849363;29;20920;-44
2023/09/29 08:16:36;;;;;;;20.20;18.60;;;21.60;99.90;;;;;;4849325;29;20630;-43
2023/09/29 08:19:03;;;;;;;19.30;18.00;;;22.10;1.00;;;;;;4849034;29;20429;-41
2023/09/29 08:21:30;;;;;;;19.63;18.13;;;22.60;99.90;;;;;;4849427;29;20793;-41
2023/09/29 08:23:55;;;;;;;19.03;17.63;;;23.10;99.90;;;;;;4849203;29;20503;-42
2023/09/29 08:26:21;;;;;;;19.60;18.20;;;23.40;1.00;;;;;;4848666;29;20544;-43
2023/09/29 08:28:46;;;;;;;18.90;17.57;;;23.70;1.00;;;;;;4849118;29;20231;-41
2023/09/29 08:31:16;;;;;;;21.67;20.13;;;24.10;1.00;;;;;;4848756;29;20711;-42
2023/09/29 08:33:42;;;;;;;18.70;17.50;;;24.40;1.00;;;;;;4848858;29;20201;-47
2023/09/29 08:36:08;;;;;;;18.70;17.50;;;24.70;1.00;;;;;;4849199;29;20556;-42
2023/09/29 08:38:34;;;;;;;18.33;16.80;;;25.10;1.00;;;;;;4848698;29;20433;-42
2023/09/29 08:41:05;;;;;;;18.37;17.07;;;25.60;1.00;;;;;;4848764;29;20786;-45
2023/09/29 08:43:32;;;;;;;18.47;17.27;;;26.10;99.90;;;;;;4848367;29;20690;-47
2023/09/29 08:45:59;;;;;;;18.87;17.13;;;26.60;99.90;;;;;;4848503;29;20951;-47
2023/09/29 08:48:32;;;;;;;19.43;18.07;;;27.00;99.90;;;;;;4849186;29;20482;-47
2023/09/29 08:51:01;;;;;;;18.33;17.07;;;27.40;99.90;;;;;;4849120;29;20417;-48
2023/09/29 08:53:28;;;;;;;18.23;17.03;;;27.90;99.90;;;;;;4849075;29;20450;-43
2023/09/29 08:55:54;;;;;;;18.33;16.63;;;28.40;99.90;;;;;;4848598;29;20913;-48
2023/09/29 08:58:24;;;;;;;17.33;16.20;;;28.90;99.90;;;;;;4848476;29;20773;-45
2023/09/29 09:00:51;;;;;;;17.93;16.93;;;29.60;99.90;;;;;;4848532;29;20508;-47
2023/09/29 09:03:18;;;;;;;17.90;16.80;;;29.80;99.90;;;;;;4848313;29;20525;-43
2023/09/29 09:05:44;;;;;;;18.20;17.10;;;29.90;99.90;;;;;;4848728;29;20520;-43
2023/09/29 09:08:13;;;;;;;18.03;16.80;;;30.50;99.90;;;;;;4848112;29;20935;-43
2023/09/29 09:10:40;;;;;;;17.57;16.47;;;31.00;99.90;;;;;;4848047;29;20788;-48
2023/09/29 09:13:06;;;;;;;17.10;16.00;;;31.60;99.90;;;;;;4848435;29;20481;-44
2023/09/29 09:15:32;;;;;;;17.87;16.77;;;31.50;99.90;;;;;;4848306;29;20796;-46
2023/09/29 09:17:58;;;;;;;17.07;16.07;;;31.20;99.90;;;;;;4848096;29;20432;-47
2023/09/29 09:20:24;;;;;;;17.57;16.50;;;31.40;99.90;;;;;;4848328;29;20220;-45
2023/09/29 09:23:01;;;;;;;16.70;15.70;;;31.80;99.90;;;;;;4847938;29;20260;-47
2023/09/29 09:25:41;;;;;;;17.53;16.53;;;31.80;99.90;;;;;;4847909;29;20215;-43
2023/09/29 09:28:17;;;;;;;17.57;16.47;;;31.70;99.90;;;;;;4847848;29;20418;-42
2023/09/29 09:30:44;;;;;;;18.00;16.63;;;32.40;99.90;;;;;;4848100;29;20446;-42
2023/09/29 09:33:25;;;;;;;17.63;16.43;;;32.60;99.90;;;;;;4848032;29;20751;-44
2023/09/29 09:35:51;;;;;;;17.50;16.27;;;32.80;99.90;;;;;;4847722;29;20418;-43
2023/09/29 09:38:17;;;;;;;17.47;16.47;;;33.10;99.90;;;;;;4847690;29;20831;-48
2023/09/29 09:40:49;;;;;;;18.13;17.03;;;33.20;99.90;;;;;;4847865;29;20804;-49
2023/09/29 09:43:17;;;;;;;18.17;17.17;;;33.10;99.90;;;;;;4848157;29;20697;-45
2023/09/29 09:45:44;;;;;;;16.90;15.90;;;32.90;99.90;;;;;;4847563;29;20975;-44
2023/09/29 09:48:14;;;;;;;17.13;16.13;;;32.40;99.90;;;;;;4847923;29;20699;-44
2023/09/29 09:50:43;;;;;;;17.40;16.40;;;32.10;99.90;;;;;;4847737;29;20952;-43
2023/09/29 09:53:11;;;;;;;16.53;15.47;;;31.80;99.90;;;;;;4847604;29;20491;-45
2023/09/29 09:55:55;;;;;;;17.50;16.50;;;31.70;99.90;;;;;;4847919;29;20453;-43
2023/09/29 09:58:23;;;;;;;16.47;15.47;;;31.40;99.90;;;;;;4847591;29;20451;-43
2023/09/29 10:00:55;;;;;;;16.50;15.57;;;31.60;99.90;;;;;;4847625;29;20500;-46
2023/09/29 10:03:21;;;;;;;16.70;15.80;;;31.90;99.90;;;;;;4847576;29;20469;-45
2023/09/29 10:05:57;;;;;;;16.40;15.50;;;32.10;99.90;;;;;;4847392;29;20425;-44
2023/09/29 10:08:29;;;;;;;16.20;15.30;;;32.50;99.90;;;;;;4847874;29;20472;-47
2023/09/29 10:11:14;;;;;;;15.70;14.80;;;33.30;99.90;;;;;;4847454;29;20740;-43
2023/09/29 10:13:42;;;;;;;15.57;14.67;;;33.80;99.90;;;;;;4847504;29;20440;-46
2023/09/29 10:16:08;;;;;;;15.30;14.40;;;33.90;99.90;;;;;;4847662;29;20574;-42
2023/09/29 10:18:35;;;;;;;16.13;15.23;;;33.80;99.90;;;;;;4847330;29;20889;-46
2023/09/29 10:21:09;;;;;;;15.77;14.77;;;33.60;99.90;;;;;;4847841;29;20456;-42
2023/09/29 10:23:50;;;;;;;15.50;14.60;;;33.30;99.90;;;;;;4847196;29;20473;-46
2023/09/29 10:26:16;;;;;;;16.40;15.20;;;33.00;99.90;;;;;;4847406;29;20440;-42
2023/09/29 10:28:45;;;;;;;15.67;14.57;;;33.20;99.90;;;;;;4847359;29;20837;-46
2023/09/29 10:31:21;;;;;;;15.40;14.50;;;33.50;99.90;;;;;;4847405;29;20421;-45
2023/09/29 10:33:55;;;;;;;15.63;14.73;;;33.70;99.90;;;;;;4847354;29;20439;-44
2023/09/29 10:36:25;;;;;;;16.47;15.57;;;33.60;99.90;;;;;;4847246;29;20912;-44
2023/09/29 10:38:53;;;;;;;15.20;14.40;;;33.50;99.90;;;;;;4847529;29;21002;-47
2023/09/29 10:41:21;;;;;;;16.07;14.97;;;33.40;99.90;;;;;;4845776;29;20448;-45
2023/09/29 10:43:48;;;;;;;15.33;14.53;;;33.70;99.90;;;;;;4847343;29;20465;-46
2023/09/29 10:46:18;;;;;;;15.77;14.97;;;33.70;99.90;;;;;;4847399;29;20441;-44
2023/09/29 10:48:48;;;;;;;15.53;14.73;;;34.00;99.90;;;;;;4848004;29;20489;-42
2023/09/29 10:51:21;;;;;;;15.50;14.60;;;34.70;99.90;;;;;;4851006;29;20417;-45
2023/09/29 10:53:47;;;;;;;15.17;14.37;;;35.60;99.90;;;;;;4850434;29;20437;-44
2023/09/29 10:56:19;;;;;;;15.10;14.40;;;35.90;99.90;;;;;;4850523;29;20497;-44
2023/09/29 10:58:45;;;;;;;14.93;14.13;;;35.80;99.90;;;;;;4850686;29;20296;-41
2023/09/29 11:01:11;;;;;;;14.47;13.67;;;35.40;99.90;;;;;;4850570;29;20857;-41
2023/09/29 11:03:37;;;;;;;14.30;13.60;;;35.00;99.90;;;;;;4850780;29;20472;-47
2023/09/29 11:06:08;;;;;;;13.63;12.93;;;35.20;99.90;;;;;;4851258;29;20188;-46
2023/09/29 11:08:38;;;;;;;14.40;13.70;;;35.60;99.90;;;;;;4850362;29;20590;-45
2023/09/29 11:11:06;;;;;;;15.10;14.30;;;35.90;99.90;;;;;;4850382;29;20435;-45
2023/09/29 11:13:32;;;;;;;14.17;13.40;;;35.90;99.90;;;;;;4849942;29;21083;-42
2023/09/29 11:15:59;;;;;;;14.27;13.47;;;36.00;99.90;;;;;;4849994;29;20433;-44
2023/09/29 11:18:35;;;;;;;14.40;13.50;;;35.70;99.90;;;;;;4850168;29;20424;-42
2023/09/29 11:21:09;;;;;;;14.60;13.87;;;35.40;99.90;;;;;;4850224;29;20433;-44
2023/09/29 11:23:45;;;;;;;13.67;12.73;;;35.30;99.90;;;;;;4850089;29;20576;-46
2023/09/29 11:26:12;;;;;;;14.20;13.50;;;35.80;99.90;;;;;;4849885;29;20425;-46
2023/09/29 11:28:47;;;;;;;14.63;13.83;;;36.80;99.90;;;;;;4850073;29;20461;-42
2023/09/29 11:31:14;;;;;;;14.53;13.73;;;37.10;99.90;;;;;;4850332;29;20420;-46
2023/09/29 11:33:40;;;;;;;14.67;13.87;;;37.20;99.90;;;;;;4849819;29;20510;-46
2023/09/29 11:36:17;;;;;;;14.83;14.03;;;37.70;99.90;;;;;;4849969;29;20452;-42
2023/09/29 11:38:44;;;;;;;14.90;14.07;;;37.40;99.90;;;;;;4849832;29;20515;-49
2023/09/29 11:41:11;;;;;;;15.30;14.30;;;37.20;99.90;;;;;;4850051;29;20968;-46
2023/09/29 11:43:39;;;;;;;13.97;13.27;;;36.50;99.90;;;;;;4848851;29;20432;-51
2023/09/29 11:46:05;;;;;;;13.47;12.77;;;36.10;99.90;;;;;;4850039;29;20524;-43
2023/09/29 11:48:31;;;;;;;16.53;15.33;;;35.80;99.90;;;;;;4848370;29;21011;-44
2023/09/29 11:50:57;;;;;;;14.60;13.80;;;35.70;99.90;;;;;;4849420;29;20185;-47
2023/09/29 11:53:23;;;;;;;13.40;12.70;;;35.20;99.90;;;;;;4849644;29;20209;-46
2023/09/29 11:55:49;;;;;;;14.20;13.50;;;34.90;99.90;;;;;;4849309;29;20436;-41
2023/09/29 11:58:15;;;;;;;14.80;14.00;;;34.80;99.90;;;;;;4849686;29;20220;-45
2023/09/29 12:00:41;;;;;;;14.50;13.80;;;34.60;99.90;;;;;;4848808;29;20184;-41
2023/09/29 12:03:08;;;;;;;13.83;13.03;;;34.40;99.90;;;;;;4849395;29;20189;-46
2023/09/29 12:05:37;;;;;;;14.00;13.30;;;34.40;99.90;;;;;;4849678;29;20954;-42
2023/09/29 12:08:03;;;;;;;13.40;12.80;;;34.40;99.90;;;;;;4849598;29;20421;-41
2023/09/29 12:10:30;;;;;;;14.80;13.80;;;34.40;99.90;;;;;;4848002;29;20477;-47
2023/09/29 12:12:56;;;;;;;15.20;14.30;;;34.00;99.90;;;;;;4849435;29;20437;-43
2023/09/29 12:15:22;;;;;;;13.67;12.97;;;33.70;99.90;;;;;;4849291;29;20560;-41
2023/09/29 12:17:48;;;;;;;12.87;12.27;;;33.00;99.90;;;;;;4849378;29;20421;-42
2023/09/29 12:20:14;;;;;;;13.20;12.60;;;32.30;99.90;;;;;;4849088;29;21006;-40
2023/09/29 12:22:45;;;;;;;13.50;12.80;;;32.10;99.90;;;;;;4849223;29;20580;-44
2023/09/29 12:25:13;;;;;;;13.57;12.97;;;31.70;99.90;;;;;;4848950;29;20903;-45
2023/09/29 12:27:40;;;;;;;13.37;12.63;;;31.60;99.90;;;;;;4849459;29;20806;-45